createdAt,value
2019-03-29T00:00:08.834Z,12.70
2019-03-29T00:02:37.530Z,12.80
2019-03-29T00:05:06.247Z,12.50
2019-03-29T00:07:39.815Z,12.20
2019-03-29T00:10:06.503Z,12.10
2019-03-29T00:12:35.177Z,12.10
2019-03-29T00:15:05.193Z,12.20
2019-03-29T00:17:33.868Z,12.00
2019-03-29T00:20:05.929Z,12.00
2019-03-29T00:22:33.113Z,11.90
2019-03-29T00:25:01.811Z,12.00
2019-03-29T00:27:30.517Z,11.50
2019-03-29T00:29:59.308Z,11.60
2019-03-29T00:32:28.018Z,11.40
2019-03-29T00:34:56.714Z,11.50
2019-03-29T00:37:25.395Z,11.50
2019-03-29T00:39:55.599Z,11.60
2019-03-29T00:42:24.290Z,11.40
2019-03-29T00:44:53.177Z,11.40
2019-03-29T00:47:21.965Z,11.80
2019-03-29T00:49:50.630Z,11.60
2019-03-29T00:52:19.350Z,11.40
2019-03-29T00:54:48.023Z,11.70
2019-03-29T00:57:17.005Z,11.60
2019-03-29T00:59:45.685Z,11.60
2019-03-29T01:02:14.397Z,11.40
2019-03-29T01:04:43.091Z,11.40
2019-03-29T01:07:11.844Z,11.30
2019-03-29T01:09:40.551Z,11.30
2019-03-29T01:12:09.255Z,11.10
2019-03-29T01:14:39.511Z,11.30
2019-03-29T01:17:08.234Z,11.20
2019-03-29T01:19:37.024Z,11.20
2019-03-29T01:22:05.991Z,11.30
2019-03-29T01:24:35.109Z,11.30
2019-03-29T01:27:03.810Z,11.00
2019-03-29T01:29:32.502Z,11.20
2019-03-29T01:32:01.294Z,11.10
2019-03-29T01:34:30.046Z,11.20
2019-03-29T01:36:59.239Z,10.90
2019-03-29T01:39:27.931Z,11.20
2019-03-29T01:41:56.648Z,10.90
2019-03-29T01:44:25.743Z,10.80
2019-03-29T01:46:54.454Z,10.80
2019-03-29T01:49:23.150Z,10.80
2019-03-29T01:51:51.846Z,10.90
2019-03-29T01:54:20.620Z,11.00
2019-03-29T01:56:49.330Z,10.80
2019-03-29T01:59:18.112Z,11.00
2019-03-29T02:01:46.867Z,10.70
2019-03-29T02:04:15.527Z,10.50
2019-03-29T02:06:45.046Z,10.60
2019-03-29T02:09:14.018Z,10.70
2019-03-29T02:11:42.703Z,10.50
2019-03-29T02:14:11.398Z,10.70
2019-03-29T02:16:40.080Z,10.50
2019-03-29T02:19:08.801Z,10.50
2019-03-29T02:21:37.549Z,10.10
2019-03-29T02:24:06.463Z,10.10
2019-03-29T02:26:35.162Z,10.10
2019-03-29T02:29:03.878Z,10.20
2019-03-29T02:31:32.598Z,10.10
2019-03-29T02:34:01.283Z,10.40
2019-03-29T02:36:30.000Z,10.20
2019-03-29T02:38:59.219Z,10.10
2019-03-29T02:41:28.241Z,10.10
2019-03-29T02:43:56.916Z,10.20
2019-03-29T02:46:26.127Z,10.20
2019-03-29T02:48:54.861Z,10.00
2019-03-29T02:51:23.675Z,10.10
2019-03-29T02:53:52.349Z,10.10
2019-03-29T02:56:21.082Z,10.30
2019-03-29T02:58:49.761Z,10.00
2019-03-29T03:01:18.549Z,10.10
2019-03-29T03:03:47.223Z,10.10
2019-03-29T03:06:15.946Z,10.20
2019-03-29T03:08:44.837Z,9.70
2019-03-29T03:11:13.508Z,9.90
2019-03-29T03:13:42.181Z,9.90
2019-03-29T03:16:10.913Z,10.00
2019-03-29T03:18:39.551Z,10.00
2019-03-29T03:21:08.268Z,10.00
2019-03-29T03:23:36.926Z,9.90
2019-03-29T03:26:05.640Z,10.00
2019-03-29T03:28:34.650Z,9.80
2019-03-29T03:31:04.893Z,10.00
2019-03-29T03:33:33.813Z,9.80
2019-03-29T03:36:02.598Z,9.60
2019-03-29T03:38:31.288Z,10.00
2019-03-29T03:41:00.001Z,9.80
2019-03-29T03:43:28.856Z,9.70
2019-03-29T03:45:57.596Z,9.80
2019-03-29T03:48:26.299Z,9.60
2019-03-29T03:50:55.011Z,9.80
2019-03-29T03:53:24.018Z,9.80
2019-03-29T03:55:54.436Z,9.70
2019-03-29T03:58:24.119Z,9.70
2019-03-29T04:00:54.631Z,9.60
2019-03-29T04:03:23.906Z,9.70
2019-03-29T04:05:52.816Z,9.70
2019-03-29T04:08:21.556Z,9.30
2019-03-29T04:10:50.329Z,9.50
2019-03-29T04:13:19.023Z,9.20
2019-03-29T04:15:47.698Z,9.50
2019-03-29T04:18:16.859Z,9.40
2019-03-29T04:20:45.873Z,9.30
2019-03-29T04:23:14.573Z,9.60
2019-03-29T04:25:43.535Z,9.30
2019-03-29T04:28:12.303Z,9.20
2019-03-29T04:30:41.176Z,9.40
2019-03-29T04:33:11.187Z,9.30
2019-03-29T04:35:40.259Z,9.30
2019-03-29T04:38:08.970Z,9.00
2019-03-29T04:40:37.656Z,9.20
2019-03-29T04:43:06.313Z,9.20
2019-03-29T04:45:35.210Z,9.30
2019-03-29T04:48:03.930Z,9.30
2019-03-29T04:50:32.607Z,9.20
2019-03-29T04:53:01.314Z,9.20
2019-03-29T04:55:29.990Z,9.10
2019-03-29T04:57:58.804Z,9.20
2019-03-29T05:00:27.593Z,9.10
2019-03-29T05:02:56.268Z,9.40
2019-03-29T05:05:24.992Z,9.10
2019-03-29T05:07:53.662Z,9.20
2019-03-29T05:10:22.393Z,9.00
2019-03-29T05:12:51.179Z,9.00
2019-03-29T05:15:20.088Z,9.00
2019-03-29T05:17:48.789Z,9.00
2019-03-29T05:20:17.497Z,8.90
2019-03-29T05:22:46.199Z,8.70
2019-03-29T05:25:14.866Z,8.80
2019-03-29T05:27:43.589Z,8.80
2019-03-29T05:30:12.265Z,8.90
2019-03-29T05:32:40.943Z,8.80
2019-03-29T05:35:09.671Z,9.10
2019-03-29T05:37:38.380Z,9.10
2019-03-29T05:40:07.270Z,8.80
2019-03-29T05:42:35.976Z,8.80
2019-03-29T05:45:06.735Z,8.90
2019-03-29T05:47:35.424Z,8.70
2019-03-29T05:50:06.894Z,8.70
2019-03-29T05:52:35.567Z,8.80
2019-03-29T05:55:05.994Z,8.60
2019-03-29T05:57:34.671Z,8.70
2019-03-29T06:00:05.368Z,8.70
2019-03-29T06:02:34.091Z,8.50
2019-03-29T06:05:02.833Z,8.70
2019-03-29T06:07:31.876Z,9.00
2019-03-29T06:10:00.572Z,9.00
2019-03-29T06:12:29.415Z,8.80
2019-03-29T06:14:58.115Z,8.70
2019-03-29T06:17:26.815Z,9.00
2019-03-29T06:19:55.802Z,9.20
2019-03-29T06:22:24.501Z,9.20
2019-03-29T06:24:53.482Z,9.10
2019-03-29T06:27:22.186Z,9.20
2019-03-29T06:29:50.901Z,9.50
